createdAt,value
2023-01-17T00:01:34.284Z,100.00
2023-01-17T00:05:58.974Z,100.00
2023-01-17T00:10:07.265Z,100.00
2023-01-17T00:14:08.783Z,100.00
2023-01-17T00:18:10.345Z,100.00
2023-01-17T00:22:40.042Z,99.43
2023-01-17T00:27:01.702Z,99.16
2023-01-17T00:31:04.798Z,98.06
2023-01-17T00:35:06.956Z,98.06
2023-01-17T00:39:09.301Z,97.75
2023-01-17T00:43:30.960Z,97.86
2023-01-17T00:47:53.084Z,96.85
2023-01-17T00:52:13.328Z,96.52
2023-01-17T00:56:33.678Z,96.46
2023-01-17T01:00:54.312Z,94.29
2023-01-17T01:05:14.552Z,91.99
2023-01-17T01:09:34.615Z,90.12
2023-01-17T01:13:57.671Z,88.58
2023-01-17T01:18:27.222Z,89.24
2023-01-17T01:22:47.684Z,89.62
2023-01-17T01:27:07.827Z,89.43
2023-01-17T01:31:27.921Z,87.64
2023-01-17T01:35:29.593Z,87.88
2023-01-17T01:39:31.103Z,86.77
2023-01-17T01:43:51.153Z,86.55
2023-01-17T01:47:58.185Z,86.83
2023-01-17T01:52:02.456Z,85.99
2023-01-17T01:56:07.743Z,86.07
2023-01-17T02:00:16.519Z,86.27
2023-01-17T02:04:19.437Z,86.65
2023-01-17T02:08:22.874Z,86.91
2023-01-17T02:12:25.181Z,87.23
2023-01-17T02:16:45.133Z,87.65
2023-01-17T02:21:08.310Z,88.09
2023-01-17T02:25:18.653Z,87.91
2023-01-17T02:29:42.568Z,88.39
2023-01-17T02:34:05.178Z,88.47
2023-01-17T02:38:17.183Z,88.77
2023-01-17T02:42:26.480Z,88.80
2023-01-17T02:46:28.147Z,88.83
2023-01-17T02:51:08.956Z,89.23
2023-01-17T02:55:23.166Z,89.33
2023-01-17T02:59:54.030Z,90.16
2023-01-17T03:04:06.776Z,90.88
2023-01-17T03:08:09.740Z,91.02
2023-01-17T03:12:12.633Z,90.86
2023-01-17T03:16:18.904Z,91.30
2023-01-17T03:20:22.548Z,91.70
2023-01-17T03:24:24.344Z,91.60
2023-01-17T03:28:25.972Z,91.93
2023-01-17T03:32:28.148Z,92.09
2023-01-17T03:36:29.822Z,92.14
2023-01-17T03:40:31.453Z,92.38
2023-01-17T03:44:34.277Z,92.70
2023-01-17T03:48:35.866Z,93.15
2023-01-17T03:52:37.442Z,93.37
2023-01-17T03:56:38.979Z,94.14
2023-01-17T04:00:40.507Z,94.44
2023-01-17T04:04:42.065Z,95.38
2023-01-17T04:08:43.659Z,96.44
2023-01-17T04:12:45.346Z,97.35
2023-01-17T04:16:46.974Z,99.07
2023-01-17T04:20:48.672Z,100.00
2023-01-17T04:24:50.309Z,100.00
2023-01-17T04:28:52.149Z,100.00
2023-01-17T04:32:54.332Z,100.00
2023-01-17T04:36:55.863Z,100.00
2023-01-17T04:40:57.565Z,100.00
2023-01-17T04:44:59.114Z,100.00
2023-01-17T04:49:00.772Z,100.00
2023-01-17T04:53:02.919Z,100.00
2023-01-17T04:57:04.462Z,100.00
2023-01-17T05:01:08.308Z,100.00
2023-01-17T05:05:10.697Z,100.00
2023-01-17T05:09:12.486Z,100.00
2023-01-17T05:13:14.334Z,99.71
2023-01-17T05:17:15.965Z,99.60
2023-01-17T05:21:17.491Z,99.25
2023-01-17T05:25:19.160Z,99.33
2023-01-17T05:29:21.868Z,99.83
2023-01-17T05:33:23.431Z,100.00
2023-01-17T05:37:24.961Z,100.00
2023-01-17T05:41:26.539Z,100.00
2023-01-17T05:45:29.550Z,100.00
2023-01-17T05:49:31.180Z,100.00
2023-01-17T05:53:33.015Z,100.00
2023-01-17T05:57:37.803Z,100.00
2023-01-17T06:01:41.348Z,100.00
2023-01-17T06:05:43.288Z,100.00
2023-01-17T06:09:44.996Z,100.00
2023-01-17T06:13:48.831Z,100.00
2023-01-17T06:17:50.536Z,100.00
2023-01-17T06:21:52.077Z,100.00
2023-01-17T06:25:53.829Z,100.00
2023-01-17T06:29:55.423Z,100.00
2023-01-17T06:33:57.097Z,100.00
2023-01-17T06:38:00.790Z,100.00
2023-01-17T06:42:02.386Z,100.00
2023-01-17T06:46:04.126Z,100.00
2023-01-17T06:50:11.028Z,100.00
2023-01-17T06:54:13.192Z,100.00
2023-01-17T06:58:15.186Z,100.00
2023-01-17T07:02:16.770Z,100.00
2023-01-17T07:06:19.110Z,100.00
2023-01-17T07:10:21.768Z,100.00
2023-01-17T07:14:23.291Z,100.00
2023-01-17T07:18:25.132Z,100.00
2023-01-17T07:22:28.189Z,100.00
2023-01-17T07:26:30.555Z,100.00
2023-01-17T07:30:33.160Z,100.00
2023-01-17T07:34:34.721Z,100.00
2023-01-17T07:38:36.658Z,100.00
2023-01-17T07:42:38.204Z,100.00
2023-01-17T07:46:40.751Z,100.00
2023-01-17T07:50:43.590Z,100.00
2023-01-17T07:54:45.201Z,100.00
2023-01-17T07:58:48.634Z,100.00
2023-01-17T08:02:50.339Z,100.00
2023-01-17T08:06:55.103Z,100.00
2023-01-17T08:10:58.214Z,100.00
2023-01-17T08:14:59.871Z,100.00
2023-01-17T08:19:02.452Z,100.00
2023-01-17T08:23:06.135Z,100.00
2023-01-17T08:27:09.116Z,100.00
2023-01-17T08:31:10.919Z,100.00
2023-01-17T08:35:12.694Z,100.00
2023-01-17T08:39:14.966Z,100.00
2023-01-17T08:43:17.034Z,100.00
2023-01-17T08:47:18.696Z,100.00
2023-01-17T08:51:20.257Z,100.00
2023-01-17T08:55:22.579Z,100.00
2023-01-17T08:59:25.052Z,100.00
2023-01-17T09:03:26.600Z,100.00
2023-01-17T09:07:28.577Z,100.00
2023-01-17T09:11:30.148Z,100.00
2023-01-17T09:15:32.040Z,100.00
2023-01-17T09:19:35.476Z,100.00
2023-01-17T09:23:37.414Z,100.00
2023-01-17T09:27:39.644Z,100.00
2023-01-17T09:31:42.307Z,100.00
2023-01-17T09:35:45.142Z,100.00
2023-01-17T09:39:46.660Z,98.99
2023-01-17T09:43:57.906Z,96.90
2023-01-17T09:48:03.508Z,94.71
2023-01-17T09:52:08.571Z,93.08
2023-01-17T09:56:15.909Z,94.29
2023-01-17T10:00:39.320Z,94.86
2023-01-17T10:05:04.117Z,94.40
2023-01-17T10:09:43.447Z,90.52
2023-01-17T10:13:53.643Z,88.45
2023-01-17T10:18:29.501Z,85.34
2023-01-17T10:22:32.049Z,85.95
2023-01-17T10:26:36.666Z,86.06
2023-01-17T10:30:43.714Z,85.25
2023-01-17T10:34:51.475Z,84.31
2023-01-17T10:39:00.796Z,83.18
2023-01-17T10:43:25.697Z,81.61
2023-01-17T10:47:34.646Z,79.74
2023-01-17T10:51:59.991Z,78.24
2023-01-17T10:56:02.696Z,79.32
2023-01-17T11:00:22.635Z,79.85
2023-01-17T11:04:36.631Z,78.48
2023-01-17T11:08:56.456Z,79.50
2023-01-17T11:12:58.270Z,77.19
2023-01-17T11:17:02.251Z,78.26
2023-01-17T11:21:20.793Z,77.62
2023-01-17T11:25:33.990Z,77.53
2023-01-17T11:29:40.612Z,76.06
2023-01-17T11:33:56.436Z,74.17
2023-01-17T11:38:19.853Z,75.04
2023-01-17T11:42:38.625Z,75.73
2023-01-17T11:46:40.237Z,74.29
2023-01-17T11:50:47.193Z,71.96
2023-01-17T11:54:51.581Z,73.72
2023-01-17T11:59:07.362Z,74.53
2023-01-17T12:03:29.665Z,72.70
2023-01-17T12:07:42.050Z,70.29
2023-01-17T12:12:13.640Z,70.57
2023-01-17T12:16:48.852Z,70.12
2023-01-17T12:21:18.019Z,69.45
2023-01-17T12:25:37.819Z,69.29
2023-01-17T12:29:58.921Z,70.39
2023-01-17T12:34:28.607Z,68.65
2023-01-17T12:38:39.835Z,65.82
2023-01-17T12:42:48.863Z,63.47
2023-01-17T12:47:03.459Z,64.93
2023-01-17T12:51:30.952Z,63.09
2023-01-17T12:55:54.857Z,63.07
2023-01-17T13:00:12.550Z,62.76
2023-01-17T13:04:24.995Z,62.12
2023-01-17T13:08:48.406Z,59.97
2023-01-17T13:12:51.806Z,61.16
2023-01-17T13:16:59.326Z,60.58
2023-01-17T13:21:07.563Z,60.32
2023-01-17T13:25:41.437Z,59.86
2023-01-17T13:30:03.461Z,59.39
2023-01-17T13:34:23.676Z,57.72
2023-01-17T13:39:00.601Z,55.75
2023-01-17T13:43:05.363Z,56.06
2023-01-17T13:47:11.022Z,54.83
2023-01-17T13:51:12.910Z,55.04
2023-01-17T13:55:45.014Z,55.08
2023-01-17T13:59:46.658Z,56.54
2023-01-17T14:03:51.512Z,56.84
2023-01-17T14:08:06.554Z,56.56
2023-01-17T14:12:12.380Z,56.83
2023-01-17T14:16:27.631Z,56.78
2023-01-17T14:20:45.065Z,57.33
2023-01-17T14:25:02.817Z,57.27
2023-01-17T14:29:42.599Z,57.89
2023-01-17T14:33:44.125Z,58.66
2023-01-17T14:37:51.374Z,59.56
2023-01-17T14:41:53.284Z,60.97
2023-01-17T14:46:00.461Z,62.76
2023-01-17T14:50:23.543Z,63.78
2023-01-17T14:54:26.555Z,64.33
2023-01-17T14:58:42.221Z,65.25
2023-01-17T15:02:44.735Z,66.52
2023-01-17T15:06:48.147Z,67.14
2023-01-17T15:10:56.038Z,67.96
2023-01-17T15:14:59.489Z,69.14
2023-01-17T15:19:02.269Z,69.73
2023-01-17T15:23:04.329Z,70.63
2023-01-17T15:27:06.564Z,71.59
2023-01-17T15:31:40.936Z,72.35
2023-01-17T15:35:42.536Z,72.59
2023-01-17T15:39:44.162Z,73.57
2023-01-17T15:43:46.400Z,78.26
2023-01-17T15:47:49.018Z,77.73
2023-01-17T15:51:52.422Z,77.04
2023-01-17T15:55:54.487Z,78.66
2023-01-17T16:00:19.198Z,78.19
2023-01-17T16:04:46.751Z,78.27
2023-01-17T16:08:52.400Z,78.49
2023-01-17T16:12:56.198Z,79.40
2023-01-17T16:16:59.855Z,79.61
2023-01-17T16:21:14.736Z,80.14
2023-01-17T16:25:21.653Z,80.65
2023-01-17T16:29:23.634Z,80.75
2023-01-17T16:33:25.542Z,81.04
2023-01-17T16:37:27.077Z,80.88
2023-01-17T16:41:28.736Z,81.16
2023-01-17T16:45:30.487Z,82.09
2023-01-17T16:49:33.469Z,82.20
2023-01-17T16:53:35.352Z,82.95
2023-01-17T16:57:36.940Z,83.20
2023-01-17T17:01:38.713Z,83.28
2023-01-17T17:05:40.302Z,83.43
2023-01-17T17:09:42.108Z,83.60
2023-01-17T17:13:48.917Z,84.26
2023-01-17T17:17:51.254Z,84.32
2023-01-17T17:21:52.967Z,84.42
2023-01-17T17:25:57.768Z,84.69
2023-01-17T17:29:59.402Z,85.30
2023-01-17T17:34:02.264Z,85.38
2023-01-17T17:38:06.637Z,85.60
2023-01-17T17:42:08.635Z,85.14
2023-01-17T17:46:10.497Z,85.62
2023-01-17T17:50:13.228Z,85.33
2023-01-17T17:54:17.384Z,85.54
2023-01-17T17:58:19.794Z,84.83
2023-01-17T18:02:21.430Z,84.78
2023-01-17T18:06:23.791Z,84.23
2023-01-17T18:10:33.970Z,84.28
2023-01-17T18:14:36.203Z,84.34
2023-01-17T18:18:40.271Z,84.67
2023-01-17T18:22:41.912Z,85.02
2023-01-17T18:26:50.060Z,84.59
2023-01-17T18:30:51.637Z,84.65
2023-01-17T18:34:53.221Z,84.73
2023-01-17T18:38:55.313Z,84.71
2023-01-17T18:42:57.578Z,83.73
2023-01-17T18:47:04.539Z,83.84
2023-01-17T18:51:09.260Z,83.90
2023-01-17T18:55:10.971Z,84.20
2023-01-17T18:59:14.898Z,84.57
2023-01-17T19:03:25.528Z,84.63
2023-01-17T19:07:29.705Z,85.39
2023-01-17T19:11:31.554Z,85.07
2023-01-17T19:15:33.744Z,85.21
2023-01-17T19:19:35.380Z,85.09
2023-01-17T19:23:37.886Z,85.30
2023-01-17T19:27:39.707Z,84.78
2023-01-17T19:31:43.443Z,84.84
2023-01-17T19:35:46.030Z,84.82
2023-01-17T19:39:47.664Z,84.34
2023-01-17T19:43:54.392Z,84.42
2023-01-17T19:47:56.317Z,84.15
2023-01-17T19:51:58.045Z,84.30
2023-01-17T19:55:59.843Z,84.00
2023-01-17T20:00:02.357Z,83.82
2023-01-17T20:04:14.139Z,84.01
2023-01-17T20:08:15.829Z,83.37
2023-01-17T20:12:17.436Z,83.96
2023-01-17T20:16:19.275Z,83.71
2023-01-17T20:20:24.362Z,83.95
2023-01-17T20:24:26.610Z,84.06
2023-01-17T20:28:29.672Z,84.33
2023-01-17T20:32:31.333Z,84.24
2023-01-17T20:36:33.224Z,83.86
2023-01-17T20:40:36.542Z,84.92
2023-01-17T20:44:38.141Z,85.59
2023-01-17T20:48:47.163Z,85.76
2023-01-17T20:52:48.701Z,86.34
2023-01-17T20:56:50.682Z,86.71
2023-01-17T21:00:54.929Z,86.82
2023-01-17T21:04:58.795Z,87.04
2023-01-17T21:09:00.879Z,87.46
2023-01-17T21:13:02.582Z,87.01
2023-01-17T21:17:04.256Z,87.61
2023-01-17T21:21:08.126Z,87.56
2023-01-17T21:25:10.074Z,88.44
2023-01-17T21:29:12.696Z,88.98
2023-01-17T21:33:14.251Z,88.83
2023-01-17T21:37:15.784Z,89.13
2023-01-17T21:41:18.199Z,89.49
2023-01-17T21:45:20.272Z,90.06
2023-01-17T21:49:21.890Z,90.32
2023-01-17T21:53:23.446Z,90.05
2023-01-17T21:57:43.464Z,90.70
2023-01-17T22:01:45.064Z,90.44
2023-01-17T22:05:46.707Z,90.39
2023-01-17T22:09:48.253Z,89.50
2023-01-17T22:13:50.371Z,88.81
2023-01-17T22:17:52.235Z,89.16
2023-01-17T22:21:54.168Z,88.86
2023-01-17T22:26:01.662Z,89.13
2023-01-17T22:30:03.373Z,89.40
2023-01-17T22:34:05.688Z,89.22
2023-01-17T22:38:07.214Z,88.38
2023-01-17T22:42:08.828Z,89.54
2023-01-17T22:46:14.660Z,89.49
2023-01-17T22:50:16.478Z,89.66
2023-01-17T22:54:19.553Z,88.88
2023-01-17T22:58:21.107Z,89.46
2023-01-17T23:02:22.947Z,89.11
2023-01-17T23:06:36.098Z,88.63
2023-01-17T23:10:56.287Z,88.27
2023-01-17T23:15:16.479Z,87.86
2023-01-17T23:19:24.265Z,87.69
2023-01-17T23:23:25.814Z,87.42
2023-01-17T23:27:49.721Z,87.47
2023-01-17T23:31:51.257Z,87.71
2023-01-17T23:35:53.482Z,87.73
2023-01-17T23:39:55.077Z,87.06
2023-01-17T23:43:58.256Z,87.89
2023-01-17T23:47:59.825Z,87.63
2023-01-17T23:52:01.376Z,87.36
2023-01-17T23:56:18.515Z,86.79
